createdAt,value
2022-12-27T00:00:32.449Z,7.18
2022-12-27T00:05:34.205Z,7.18
2022-12-27T00:10:36.726Z,7.19
2022-12-27T00:15:38.579Z,7.17
2022-12-27T00:20:40.481Z,7.15
2022-12-27T00:25:42.391Z,7.14
2022-12-27T00:30:44.272Z,7.15
2022-12-27T00:35:46.061Z,7.18
2022-12-27T00:40:48.371Z,7.21
2022-12-27T00:45:50.558Z,7.22
2022-12-27T00:51:05.620Z,7.20
2022-12-27T00:56:13.956Z,7.17
2022-12-27T01:01:19.896Z,7.09
2022-12-27T01:06:29.111Z,6.98
2022-12-27T01:11:31.995Z,6.91
2022-12-27T01:16:33.911Z,6.91
2022-12-27T01:21:35.892Z,6.94
2022-12-27T01:26:37.758Z,6.96
2022-12-27T01:31:40.851Z,6.97
2022-12-27T01:36:43.309Z,6.94
2022-12-27T01:42:04.094Z,6.89
2022-12-27T01:47:29.572Z,6.86
2022-12-27T01:52:59.499Z,6.88
2022-12-27T01:58:07.317Z,6.82
2022-12-27T02:03:12.056Z,6.78
2022-12-27T02:08:29.261Z,6.77
2022-12-27T02:13:34.846Z,6.78
2022-12-27T02:18:36.757Z,6.77
2022-12-27T02:24:03.522Z,6.75
2022-12-27T02:29:15.672Z,6.74
2022-12-27T02:34:26.550Z,6.69
2022-12-27T02:39:30.888Z,6.58
2022-12-27T02:44:51.096Z,6.47
2022-12-27T02:50:11.185Z,6.37
2022-12-27T02:56:09.594Z,6.32
2022-12-27T03:01:47.250Z,6.25
2022-12-27T03:07:01.132Z,6.20
2022-12-27T03:12:45.842Z,6.16
2022-12-27T03:17:58.607Z,6.05
2022-12-27T03:23:22.069Z,5.98
2022-12-27T03:28:47.324Z,5.92
2022-12-27T03:34:00.041Z,5.86
2022-12-27T03:39:20.424Z,5.88
2022-12-27T03:44:25.365Z,5.85
2022-12-27T03:50:03.185Z,5.82
2022-12-27T03:55:06.088Z,5.73
2022-12-27T04:00:09.088Z,5.65
2022-12-27T04:05:18.203Z,5.60
2022-12-27T04:10:38.552Z,5.57
2022-12-27T04:15:58.979Z,5.56
2022-12-27T04:21:19.214Z,5.55
2022-12-27T04:26:39.201Z,5.50
2022-12-27T04:31:59.455Z,5.44
2022-12-27T04:37:01.293Z,5.35
2022-12-27T04:42:21.536Z,5.30
2022-12-27T04:47:42.777Z,5.24
2022-12-27T04:53:03.618Z,5.15
2022-12-27T04:58:05.595Z,5.09
2022-12-27T05:03:11.387Z,5.04
2022-12-27T05:08:33.802Z,5.03
2022-12-27T05:13:54.277Z,5.05
2022-12-27T05:18:56.466Z,5.01
2022-12-27T05:24:16.700Z,4.99
2022-12-27T05:29:18.440Z,4.99
2022-12-27T05:34:20.165Z,4.98
2022-12-27T05:39:21.920Z,5.00
2022-12-27T05:44:23.640Z,5.01
2022-12-27T05:49:25.453Z,5.01
2022-12-27T05:54:27.205Z,4.99
2022-12-27T05:59:29.037Z,4.98
2022-12-27T06:04:30.930Z,5.00
2022-12-27T06:09:33.026Z,4.99
2022-12-27T06:14:34.829Z,4.98
2022-12-27T06:19:36.643Z,4.95
2022-12-27T06:24:38.442Z,4.90
2022-12-27T06:29:40.404Z,4.86
2022-12-27T06:34:42.164Z,4.82
2022-12-27T06:39:45.303Z,4.78
2022-12-27T06:44:47.104Z,4.74
2022-12-27T06:49:48.906Z,4.71
2022-12-27T06:54:50.661Z,4.68
2022-12-27T06:59:54.174Z,4.65
2022-12-27T07:04:56.275Z,4.64
2022-12-27T07:09:59.254Z,4.62
2022-12-27T07:15:00.992Z,4.64
2022-12-27T07:20:04.751Z,4.63
2022-12-27T07:25:06.957Z,4.62
2022-12-27T07:30:09.437Z,4.62
2022-12-27T07:35:11.261Z,4.60
2022-12-27T07:40:13.313Z,4.58
2022-12-27T07:45:15.244Z,4.56
2022-12-27T07:50:16.955Z,4.55
2022-12-27T07:55:18.763Z,4.55
2022-12-27T08:00:21.026Z,4.59
2022-12-27T08:05:27.649Z,4.63
2022-12-27T08:10:29.968Z,4.66
2022-12-27T08:15:31.979Z,4.68
2022-12-27T08:20:34.213Z,4.69
2022-12-27T08:25:36.113Z,4.73
2022-12-27T08:30:39.401Z,4.81
2022-12-27T08:35:52.885Z,4.90
2022-12-27T08:40:55.529Z,4.95
2022-12-27T08:46:08.552Z,4.98
2022-12-27T08:51:13.203Z,4.98
2022-12-27T08:56:16.412Z,5.02
2022-12-27T09:01:18.718Z,5.07
2022-12-27T09:06:22.760Z,5.09
2022-12-27T09:11:33.447Z,5.16
2022-12-27T09:16:36.378Z,5.20
2022-12-27T09:21:42.182Z,5.25
2022-12-27T09:26:44.039Z,5.24
2022-12-27T09:31:45.875Z,5.33
2022-12-27T09:36:48.985Z,5.48
2022-12-27T09:47:50.070Z,5.58
2022-12-27T09:53:12.486Z,5.62
2022-12-27T09:58:42.831Z,5.65
2022-12-27T10:03:44.664Z,5.69
2022-12-27T10:08:59.477Z,5.73
2022-12-27T10:14:09.930Z,5.77
2022-12-27T10:19:41.270Z,5.83
2022-12-27T10:25:00.203Z,5.98
2022-12-27T10:30:03.717Z,6.03
2022-12-27T10:35:06.969Z,6.02
2022-12-27T10:40:19.296Z,6.03
2022-12-27T10:45:37.092Z,6.05
2022-12-27T10:50:44.514Z,6.10
2022-12-27T10:55:46.588Z,6.14
2022-12-27T11:00:56.989Z,6.20
2022-12-27T11:06:07.256Z,6.24
2022-12-27T11:11:18.112Z,6.29
2022-12-27T11:16:31.906Z,6.35
2022-12-27T11:21:40.639Z,6.40
2022-12-27T11:26:54.167Z,6.42
2022-12-27T11:31:57.356Z,6.43
2022-12-27T11:37:14.421Z,6.40
2022-12-27T11:42:38.644Z,6.33
2022-12-27T11:47:46.622Z,6.29
2022-12-27T11:52:48.739Z,6.27
2022-12-27T11:58:14.744Z,6.35
2022-12-27T12:03:45.921Z,6.42
2022-12-27T12:08:59.728Z,6.49
2022-12-27T12:14:11.613Z,6.53
2022-12-27T12:19:44.922Z,6.52
2022-12-27T12:24:55.697Z,6.52
2022-12-27T12:29:57.498Z,6.51
2022-12-27T12:35:33.055Z,6.53
2022-12-27T12:40:53.498Z,6.50
2022-12-27T12:46:02.947Z,6.49
2022-12-27T12:51:25.666Z,6.49
2022-12-27T12:57:04.300Z,6.47
2022-12-27T13:02:06.118Z,6.49
2022-12-27T13:07:37.766Z,6.51
2022-12-27T13:12:59.571Z,6.53
2022-12-27T13:18:07.443Z,6.53
2022-12-27T13:23:09.191Z,6.53
2022-12-27T13:28:29.615Z,6.48
2022-12-27T13:33:48.829Z,6.45
2022-12-27T13:39:42.555Z,6.45
2022-12-27T13:45:22.018Z,6.45
2022-12-27T13:51:05.917Z,6.46
2022-12-27T14:02:20.587Z,6.48
2022-12-27T14:07:40.837Z,6.46
2022-12-27T14:13:01.205Z,6.43
2022-12-27T14:18:05.940Z,6.39
2022-12-27T14:23:07.671Z,6.33
2022-12-27T14:28:18.528Z,6.30
2022-12-27T14:33:59.523Z,6.26
2022-12-27T14:39:32.249Z,6.21
2022-12-27T14:44:49.427Z,6.17
2022-12-27T14:50:24.981Z,6.14
2022-12-27T14:55:54.946Z,6.11
2022-12-27T15:01:39.608Z,6.09
2022-12-27T15:07:02.893Z,6.05
2022-12-27T15:12:43.685Z,6.02
2022-12-27T15:18:34.265Z,5.98
2022-12-27T15:23:51.678Z,5.93
2022-12-27T15:29:17.022Z,5.89
2022-12-27T15:34:31.319Z,5.84
2022-12-27T15:39:33.206Z,5.82
2022-12-27T15:45:00.752Z,5.77
2022-12-27T15:50:41.667Z,5.71
2022-12-27T15:56:17.632Z,5.66
2022-12-27T16:01:28.361Z,5.59
2022-12-27T16:06:33.332Z,5.54
2022-12-27T16:12:09.465Z,5.51
2022-12-27T16:17:20.347Z,5.45
2022-12-27T16:22:28.268Z,5.40
2022-12-27T16:27:33.183Z,5.36
2022-12-27T16:32:35.030Z,5.33
2022-12-27T16:37:45.148Z,5.29
2022-12-27T16:42:47.590Z,5.24
2022-12-27T16:48:10.749Z,5.18
2022-12-27T16:53:34.431Z,5.13
2022-12-27T16:58:38.837Z,5.09
2022-12-27T17:03:40.611Z,5.04
2022-12-27T17:08:42.545Z,5.03
2022-12-27T17:13:49.696Z,5.01
2022-12-27T17:19:02.835Z,5.00
2022-12-27T17:24:09.203Z,5.01
2022-12-27T17:29:29.382Z,5.01
2022-12-27T17:34:56.865Z,5.03
2022-12-27T17:40:34.207Z,5.04
2022-12-27T17:46:13.634Z,5.04
2022-12-27T17:51:20.072Z,5.04
2022-12-27T17:56:42.050Z,5.04
2022-12-27T18:01:50.378Z,5.03
2022-12-27T18:06:58.057Z,5.04
2022-12-27T18:12:00.785Z,5.04
2022-12-27T18:17:02.986Z,5.05
2022-12-27T18:22:05.192Z,5.04
2022-12-27T18:27:19.483Z,5.05
2022-12-27T18:32:23.575Z,5.04
2022-12-27T18:37:27.716Z,5.03
2022-12-27T18:42:29.712Z,5.03
2022-12-27T18:47:38.377Z,5.04
2022-12-27T18:52:41.767Z,5.04
2022-12-27T18:57:44.079Z,5.05
2022-12-27T19:02:46.087Z,5.05
2022-12-27T19:07:59.831Z,5.07
2022-12-27T19:13:02.850Z,5.07
2022-12-27T19:18:07.223Z,5.08
2022-12-27T19:23:28.960Z,5.08
2022-12-27T19:28:31.895Z,5.08
2022-12-27T19:33:35.939Z,5.10
2022-12-27T19:38:47.738Z,5.10
2022-12-27T19:43:50.366Z,5.10
2022-12-27T19:49:23.547Z,5.08
2022-12-27T19:54:20.203Z,5.05
2022-12-27T19:59:23.247Z,5.05
2022-12-27T20:04:25.168Z,5.04
2022-12-27T20:09:27.441Z,5.02
2022-12-27T20:14:29.280Z,4.99
2022-12-27T20:19:31.189Z,4.97
2022-12-27T20:29:51.189Z,4.93
2022-12-27T20:34:53.012Z,4.92
2022-12-27T20:39:54.871Z,4.91
2022-12-27T20:44:58.361Z,4.91
2022-12-27T20:50:00.209Z,4.90
2022-12-27T20:55:01.950Z,4.88
2022-12-27T21:00:07.350Z,4.89
2022-12-27T21:05:09.426Z,4.89
2022-12-27T21:10:11.453Z,4.90
2022-12-27T21:15:13.769Z,4.89
2022-12-27T21:20:15.671Z,4.87
2022-12-27T21:25:17.498Z,4.87
2022-12-27T21:30:19.415Z,4.86
2022-12-27T21:35:21.328Z,4.88
2022-12-27T21:40:23.153Z,4.88
2022-12-27T21:45:25.211Z,4.89
2022-12-27T21:50:30.190Z,4.90
2022-12-27T21:55:36.719Z,4.88
2022-12-27T22:00:39.294Z,4.87
2022-12-27T22:05:42.344Z,4.88
2022-12-27T22:10:45.443Z,4.88
2022-12-27T22:15:57.954Z,4.87
2022-12-27T22:21:03.889Z,4.87
2022-12-27T22:26:13.101Z,4.88
2022-12-27T22:31:21.177Z,4.88
2022-12-27T22:36:25.529Z,4.88
2022-12-27T22:41:33.077Z,4.87
2022-12-27T22:47:24.403Z,4.89
2022-12-27T22:51:57.633Z,4.87
2022-12-27T22:56:59.556Z,4.88
2022-12-27T23:02:01.565Z,4.90
2022-12-27T23:07:03.747Z,4.92
2022-12-27T23:12:06.759Z,4.96
2022-12-27T23:17:08.568Z,4.97
2022-12-27T23:22:10.295Z,5.00
2022-12-27T23:27:12.078Z,5.02
2022-12-27T23:32:14.133Z,5.01
2022-12-27T23:37:15.874Z,5.01
2022-12-27T23:42:17.734Z,4.99
2022-12-27T23:47:19.727Z,5.00
2022-12-27T23:52:21.727Z,4.99
2022-12-27T23:57:23.472Z,4.97
